sensor_id;sensor_type;location;lat;lon;timestamp;pressure;altitude;pressure_sealevel;temperature;humidity
22753;BME280;11543;43.144;24.684;2022-10-22T00:01:33;99564.06;;;10.21;67.07
22753;BME280;11543;43.144;24.684;2022-10-22T00:03:59;99569.56;;;10.20;66.81
22753;BME280;11543;43.144;24.684;2022-10-22T00:06:25;99564.22;;;9.99;67.11
22753;BME280;11543;43.144;24.684;2022-10-22T00:08:51;99557.44;;;9.95;67.73
22753;BME280;11543;43.144;24.684;2022-10-22T00:11:18;99550.38;;;9.94;68.05
22753;BME280;11543;43.144;24.684;2022-10-22T00:13:44;99548.13;;;9.99;67.79
22753;BME280;11543;43.144;24.684;2022-10-22T00:16:10;99542.63;;;10.01;67.58
22753;BME280;11543;43.144;24.684;2022-10-22T00:18:36;99540.41;;;10.06;67.28
22753;BME280;11543;43.144;24.684;2022-10-22T00:21:01;99533.47;;;10.03;67.35
22753;BME280;11543;43.144;24.684;2022-10-22T00:23:27;99539.66;;;9.94;67.97
22753;BME280;11543;43.144;24.684;2022-10-22T00:25:52;99546.06;;;9.82;68.05
22753;BME280;11543;43.144;24.684;2022-10-22T00:28:18;99541.72;;;9.60;68.37
22753;BME280;11543;43.144;24.684;2022-10-22T00:30:44;99535.69;;;9.47;69.29
22753;BME280;11543;43.144;24.684;2022-10-22T00:33:09;99537.78;;;9.43;69.77
22753;BME280;11543;43.144;24.684;2022-10-22T00:35:35;99528.56;;;9.36;70.31
22753;BME280;11543;43.144;24.684;2022-10-22T00:38:00;99518.50;;;9.49;70.47
22753;BME280;11543;43.144;24.684;2022-10-22T00:40:26;99520.03;;;9.63;69.89
22753;BME280;11543;43.144;24.684;2022-10-22T00:42:51;99507.66;;;9.72;69.81
22753;BME280;11543;43.144;24.684;2022-10-22T00:45:26;99515.63;;;9.83;69.66
22753;BME280;11543;43.144;24.684;2022-10-22T00:48:26;99527.50;;;9.90;68.92
22753;BME280;11543;43.144;24.684;2022-10-22T00:50:56;99525.53;;;9.92;68.87
22753;BME280;11543;43.144;24.684;2022-10-22T00:53:26;99525.25;;;9.95;68.74
22753;BME280;11543;43.144;24.684;2022-10-22T00:55:53;99527.63;;;9.88;68.80
22753;BME280;11543;43.144;24.684;2022-10-22T00:58:22;99515.47;;;9.84;68.89
22753;BME280;11543;43.144;24.684;2022-10-22T01:00:48;99520.97;;;9.83;68.97
22753;BME280;11543;43.144;24.684;2022-10-22T01:03:14;99520.31;;;9.90;68.92
22753;BME280;11543;43.144;24.684;2022-10-22T01:05:52;99518.19;;;9.94;68.79
22753;BME280;11543;43.144;24.684;2022-10-22T01:11:21;99516.22;;;9.96;68.24
22753;BME280;11543;43.144;24.684;2022-10-22T01:13:58;99517.94;;;9.97;67.94
22753;BME280;11543;43.144;24.684;2022-10-22T01:22:41;99511.44;;;10.00;67.73
22753;BME280;11543;43.144;24.684;2022-10-22T01:25:40;99502.13;;;9.94;67.61
22753;BME280;11543;43.144;24.684;2022-10-22T01:31:00;99499.31;;;9.96;68.09
22753;BME280;11543;43.144;24.684;2022-10-22T01:33:28;99497.06;;;10.01;68.52
22753;BME280;11543;43.144;24.684;2022-10-22T01:35:55;99488.88;;;10.02;68.16
22753;BME280;11543;43.144;24.684;2022-10-22T01:38:23;99493.97;;;10.05;68.33
22753;BME280;11543;43.144;24.684;2022-10-22T01:40:50;99493.50;;;9.90;68.25
22753;BME280;11543;43.144;24.684;2022-10-22T01:43:15;99489.25;;;9.57;68.63
22753;BME280;11543;43.144;24.684;2022-10-22T01:45:43;99497.88;;;9.40;68.54
22753;BME280;11543;43.144;24.684;2022-10-22T01:51:17;99477.91;;;9.03;69.33
22753;BME280;11543;43.144;24.684;2022-10-22T02:01:58;99481.16;;;9.27;71.58
22753;BME280;11543;43.144;24.684;2022-10-22T02:04:59;99473.06;;;9.38;71.08
22753;BME280;11543;43.144;24.684;2022-10-22T02:07:31;99472.78;;;9.41;70.99
22753;BME280;11543;43.144;24.684;2022-10-22T02:09:58;99475.91;;;9.46;70.90
22753;BME280;11543;43.144;24.684;2022-10-22T02:12:27;99469.31;;;9.50;70.40
22753;BME280;11543;43.144;24.684;2022-10-22T02:14:54;99470.03;;;9.52;70.56
22753;BME280;11543;43.144;24.684;2022-10-22T02:17:21;99483.63;;;9.61;70.33
22753;BME280;11543;43.144;24.684;2022-10-22T02:19:51;99479.44;;;9.68;69.89
22753;BME280;11543;43.144;24.684;2022-10-22T02:22:17;99471.13;;;9.71;69.82
22753;BME280;11543;43.144;24.684;2022-10-22T02:24:44;99470.88;;;9.74;69.58
22753;BME280;11543;43.144;24.684;2022-10-22T02:32:40;99470.63;;;9.56;69.63
22753;BME280;11543;43.144;24.684;2022-10-22T02:35:10;99460.38;;;9.40;69.81
22753;BME280;11543;43.144;24.684;2022-10-22T02:37:37;99456.09;;;9.28;70.49
22753;BME280;11543;43.144;24.684;2022-10-22T02:40:04;99453.22;;;9.20;70.75
22753;BME280;11543;43.144;24.684;2022-10-22T02:42:31;99455.69;;;9.12;71.11
22753;BME280;11543;43.144;24.684;2022-10-22T02:44:57;99438.47;;;9.05;71.65
22753;BME280;11543;43.144;24.684;2022-10-22T02:47:22;99449.38;;;9.13;71.97
22753;BME280;11543;43.144;24.684;2022-10-22T02:49:48;99434.03;;;9.15;71.92
22753;BME280;11543;43.144;24.684;2022-10-22T02:52:13;99432.13;;;9.26;71.95
22753;BME280;11543;43.144;24.684;2022-10-22T02:54:39;99438.91;;;9.31;71.93
22753;BME280;11543;43.144;24.684;2022-10-22T02:57:04;99431.25;;;9.26;71.49
22753;BME280;11543;43.144;24.684;2022-10-22T02:59:29;99435.97;;;9.13;71.78
22753;BME280;11543;43.144;24.684;2022-10-22T03:01:55;99433.31;;;9.13;72.20
22753;BME280;11543;43.144;24.684;2022-10-22T03:04:20;99439.25;;;9.16;72.59
22753;BME280;11543;43.144;24.684;2022-10-22T03:06:46;99436.88;;;9.23;72.56
22753;BME280;11543;43.144;24.684;2022-10-22T03:09:13;99441.19;;;9.35;72.13
22753;BME280;11543;43.144;24.684;2022-10-22T03:11:38;99439.94;;;9.39;71.91
22753;BME280;11543;43.144;24.684;2022-10-22T03:14:04;99438.69;;;9.43;71.61
22753;BME280;11543;43.144;24.684;2022-10-22T03:16:29;99441.81;;;9.48;71.31
22753;BME280;11543;43.144;24.684;2022-10-22T03:18:55;99428.28;;;9.50;71.21
22753;BME280;11543;43.144;24.684;2022-10-22T03:21:43;99437.38;;;9.58;71.01
22753;BME280;11543;43.144;24.684;2022-10-22T03:24:20;99429.22;;;9.60;71.21
22753;BME280;11543;43.144;24.684;2022-10-22T03:26:49;99434.03;;;9.66;71.20
22753;BME280;11543;43.144;24.684;2022-10-22T03:29:15;99441.94;;;9.68;70.99
22753;BME280;11543;43.144;24.684;2022-10-22T03:31:41;99434.59;;;9.70;71.16
22753;BME280;11543;43.144;24.684;2022-10-22T03:34:07;99408.34;;;9.64;71.10
22753;BME280;11543;43.144;24.684;2022-10-22T03:36:33;99418.38;;;9.71;71.06
22753;BME280;11543;43.144;24.684;2022-10-22T03:39:00;99418.25;;;9.73;70.71
22753;BME280;11543;43.144;24.684;2022-10-22T03:41:25;99417.38;;;9.63;70.67
22753;BME280;11543;43.144;24.684;2022-10-22T03:43:51;99417.56;;;9.50;70.77
22753;BME280;11543;43.144;24.684;2022-10-22T03:46:18;99413.97;;;9.30;71.12
22753;BME280;11543;43.144;24.684;2022-10-22T03:48:44;99429.91;;;9.11;71.11
22753;BME280;11543;43.144;24.684;2022-10-22T03:51:09;99433.91;;;8.96;71.03
22753;BME280;11543;43.144;24.684;2022-10-22T03:53:35;99424.94;;;8.85;71.89
22753;BME280;11543;43.144;24.684;2022-10-22T03:56:01;99414.19;;;8.97;72.16
22753;BME280;11543;43.144;24.684;2022-10-22T03:58:26;99396.75;;;9.02;72.22
22753;BME280;11543;43.144;24.684;2022-10-22T04:00:51;99396.81;;;9.12;71.80
22753;BME280;11543;43.144;24.684;2022-10-22T04:03:17;99396.53;;;9.15;71.73
22753;BME280;11543;43.144;24.684;2022-10-22T04:05:42;99405.03;;;9.20;71.67
22753;BME280;11543;43.144;24.684;2022-10-22T04:08:08;99406.00;;;9.19;71.71
22753;BME280;11543;43.144;24.684;2022-10-22T04:10:33;99395.91;;;9.02;71.88
22753;BME280;11543;43.144;24.684;2022-10-22T04:12:59;99381.53;;;9.03;72.40
22753;BME280;11543;43.144;24.684;2022-10-22T04:15:24;99375.13;;;9.15;72.87
22753;BME280;11543;43.144;24.684;2022-10-22T04:17:52;99379.69;;;9.24;72.76
22753;BME280;11543;43.144;24.684;2022-10-22T04:20:18;99387.00;;;9.22;72.34
22753;BME280;11543;43.144;24.684;2022-10-22T04:22:43;99401.63;;;9.18;72.48
22753;BME280;11543;43.144;24.684;2022-10-22T04:25:09;99397.38;;;9.15;72.47
22753;BME280;11543;43.144;24.684;2022-10-22T04:27:35;99405.09;;;9.09;72.31
22753;BME280;11543;43.144;24.684;2022-10-22T04:30:01;99405.81;;;9.11;73.02
22753;BME280;11543;43.144;24.684;2022-10-22T04:32:27;99388.97;;;9.20;72.94
22753;BME280;11543;43.144;24.684;2022-10-22T04:34:52;99391.25;;;9.24;72.99
22753;BME280;11543;43.144;24.684;2022-10-22T04:37:18;99396.06;;;9.31;72.58
22753;BME280;11543;43.144;24.684;2022-10-22T04:39:43;99392.97;;;9.35;72.63
22753;BME280;11543;43.144;24.684;2022-10-22T04:42:09;99395.84;;;9.43;72.40
22753;BME280;11543;43.144;24.684;2022-10-22T04:44:35;99387.97;;;9.51;72.24
22753;BME280;11543;43.144;24.684;2022-10-22T04:47:00;99393.41;;;9.61;71.88
22753;BME280;11543;43.144;24.684;2022-10-22T04:49:25;99386.38;;;9.70;71.68
22753;BME280;11543;43.144;24.684;2022-10-22T04:51:51;99392.31;;;9.73;71.73
22753;BME280;11543;43.144;24.684;2022-10-22T04:54:16;99405.88;;;9.81;71.56
22753;BME280;11543;43.144;24.684;2022-10-22T04:56:42;99397.97;;;9.80;71.73
22753;BME280;11543;43.144;24.684;2022-10-22T04:59:08;99394.03;;;9.84;71.46
22753;BME280;11543;43.144;24.684;2022-10-22T05:01:37;99405.34;;;9.97;71.45
22753;BME280;11543;43.144;24.684;2022-10-22T05:04:04;99404.22;;;10.00;71.07
22753;BME280;11543;43.144;24.684;2022-10-22T05:06:32;99405.78;;;10.02;71.01
22753;BME280;11543;43.144;24.684;2022-10-22T05:09:00;99420.31;;;10.09;70.81
22753;BME280;11543;43.144;24.684;2022-10-22T05:11:29;99413.28;;;10.08;70.79
22753;BME280;11543;43.144;24.684;2022-10-22T05:13:55;99412.72;;;10.14;71.00
22753;BME280;11543;43.144;24.684;2022-10-22T05:16:23;99407.06;;;10.17;70.91
22753;BME280;11543;43.144;24.684;2022-10-22T05:18:48;99411.59;;;10.17;71.18
22753;BME280;11543;43.144;24.684;2022-10-22T05:21:16;99428.28;;;10.20;71.17
22753;BME280;11543;43.144;24.684;2022-10-22T05:23:43;99426.84;;;10.16;71.15
22753;BME280;11543;43.144;24.684;2022-10-22T05:26:10;99433.88;;;10.08;71.57
22753;BME280;11543;43.144;24.684;2022-10-22T05:28:37;99440.38;;;10.15;71.89
22753;BME280;11543;43.144;24.684;2022-10-22T05:31:03;99446.06;;;10.21;71.70
22753;BME280;11543;43.144;24.684;2022-10-22T05:33:31;99451.16;;;10.25;71.92
22753;BME280;11543;43.144;24.684;2022-10-22T05:35:57;99452.31;;;10.32;71.62
22753;BME280;11543;43.144;24.684;2022-10-22T05:38:22;99460.63;;;10.29;71.81
22753;BME280;11543;43.144;24.684;2022-10-22T05:41:01;99478.81;;;10.25;71.85
22753;BME280;11543;43.144;24.684;2022-10-22T05:43:27;99485.56;;;10.19;72.19
22753;BME280;11543;43.144;24.684;2022-10-22T05:45:53;99484.13;;;10.15;72.35
22753;BME280;11543;43.144;24.684;2022-10-22T05:48:18;99486.09;;;10.13;72.73
22753;BME280;11543;43.144;24.684;2022-10-22T05:50:44;99498.25;;;10.17;72.89
22753;BME280;11543;43.144;24.684;2022-10-22T05:53:16;99502.81;;;10.27;72.95
22753;BME280;11543;43.144;24.684;2022-10-22T05:55:42;99495.22;;;10.32;73.16
22753;BME280;11543;43.144;24.684;2022-10-22T05:58:12;99482.41;;;10.45;72.61
22753;BME280;11543;43.144;24.684;2022-10-22T06:00:38;99491.06;;;10.58;71.94
22753;BME280;11543;43.144;24.684;2022-10-22T06:03:03;99480.47;;;10.66;71.82
22753;BME280;11543;43.144;24.684;2022-10-22T06:05:29;99478.91;;;10.73;71.71
22753;BME280;11543;43.144;24.684;2022-10-22T06:07:56;99479.47;;;10.77;71.51
22753;BME280;11543;43.144;24.684;2022-10-22T06:10:22;99480.75;;;10.82;71.34
22753;BME280;11543;43.144;24.684;2022-10-22T06:12:48;99465.63;;;10.81;70.84
22753;BME280;11543;43.144;24.684;2022-10-22T06:15:16;99484.00;;;10.96;70.61
22753;BME280;11543;43.144;24.684;2022-10-22T06:17:43;99489.66;;;11.02;70.29
22753;BME280;11543;43.144;24.684;2022-10-22T06:20:09;99484.56;;;11.09;69.92
22753;BME280;11543;43.144;24.684;2022-10-22T06:22:35;99482.00;;;11.17;70.22
22753;BME280;11543;43.144;24.684;2022-10-22T06:25:00;99476.06;;;11.23;69.83
22753;BME280;11543;43.144;24.684;2022-10-22T06:27:26;99479.75;;;11.32;69.67
22753;BME280;11543;43.144;24.684;2022-10-22T06:29:51;99458.81;;;11.35;69.46
22753;BME280;11543;43.144;24.684;2022-10-22T06:32:16;99465.00;;;11.45;69.24
22753;BME280;11543;43.144;24.684;2022-10-22T06:34:42;99463.59;;;11.51;68.76
22753;BME280;11543;43.144;24.684;2022-10-22T06:37:08;99463.00;;;11.57;68.71
22753;BME280;11543;43.144;24.684;2022-10-22T06:39:34;99462.69;;;11.60;68.62
22753;BME280;11543;43.144;24.684;2022-10-22T06:42:01;99459.56;;;11.65;68.87
22753;BME280;11543;43.144;24.684;2022-10-22T06:44:27;99457.44;;;11.68;68.43
22753;BME280;11543;43.144;24.684;2022-10-22T06:46:52;99464.50;;;11.79;68.56
22753;BME280;11543;43.144;24.684;2022-10-22T06:49:19;99463.75;;;11.87;68.44
22753;BME280;11543;43.144;24.684;2022-10-22T06:51:47;99467.41;;;11.95;68.34
22753;BME280;11543;43.144;24.684;2022-10-22T06:54:13;99452.66;;;11.99;68.35
22753;BME280;11543;43.144;24.684;2022-10-22T06:56:40;99460.53;;;12.10;68.23
22753;BME280;11543;43.144;24.684;2022-10-22T06:59:06;99461.81;;;12.16;67.96
22753;BME280;11543;43.144;24.684;2022-10-22T07:01:33;99453.97;;;12.23;67.82
22753;BME280;11543;43.144;24.684;2022-10-22T07:03:59;99466.53;;;12.32;67.61
22753;BME280;11543;43.144;24.684;2022-10-22T07:06:27;99469.31;;;12.40;67.28
22753;BME280;11543;43.144;24.684;2022-10-22T07:08:54;99461.47;;;12.47;66.79
22753;BME280;11543;43.144;24.684;2022-10-22T07:11:36;99460.56;;;12.56;66.66
22753;BME280;11543;43.144;24.684;2022-10-22T07:14:03;99455.09;;;12.65;66.48
22753;BME280;11543;43.144;24.684;2022-10-22T07:16:28;99451.78;;;12.71;66.19
22753;BME280;11543;43.144;24.684;2022-10-22T07:18:55;99448.19;;;12.81;66.01
22753;BME280;11543;43.144;24.684;2022-10-22T07:21:21;99434.78;;;12.89;65.65
22753;BME280;11543;43.144;24.684;2022-10-22T07:23:48;99430.16;;;12.99;65.44
22753;BME280;11543;43.144;24.684;2022-10-22T07:26:15;99424.69;;;13.08;64.99
22753;BME280;11543;43.144;24.684;2022-10-22T07:28:41;99429.88;;;13.20;65.05
22753;BME280;11543;43.144;24.684;2022-10-22T07:31:08;99429.59;;;13.31;65.14
22753;BME280;11543;43.144;24.684;2022-10-22T07:33:34;99441.34;;;13.48;65.04
22753;BME280;11543;43.144;24.684;2022-10-22T07:36:02;99435.00;;;13.57;64.91
22753;BME280;11543;43.144;24.684;2022-10-22T07:38:29;99432.00;;;13.68;64.74
22753;BME280;11543;43.144;24.684;2022-10-22T07:40:56;99420.59;;;13.74;64.50
22753;BME280;11543;43.144;24.684;2022-10-22T07:43:22;99421.00;;;13.87;64.21
22753;BME280;11543;43.144;24.684;2022-10-22T07:45:48;99417.66;;;13.93;63.82
22753;BME280;11543;43.144;24.684;2022-10-22T07:48:13;99417.69;;;14.01;63.72
22753;BME280;11543;43.144;24.684;2022-10-22T07:50:39;99412.34;;;14.10;63.31
22753;BME280;11543;43.144;24.684;2022-10-22T07:53:04;99405.63;;;14.22;63.13
22753;BME280;11543;43.144;24.684;2022-10-22T07:55:32;99396.53;;;14.31;62.82
22753;BME280;11543;43.144;24.684;2022-10-22T07:57:58;99400.47;;;14.45;62.43
22753;BME280;11543;43.144;24.684;2022-10-22T08:00:24;99399.81;;;14.59;61.85
22753;BME280;11543;43.144;24.684;2022-10-22T08:02:50;99395.94;;;14.70;61.29
22753;BME280;11543;43.144;24.684;2022-10-22T08:05:15;99390.06;;;14.82;60.43
22753;BME280;11543;43.144;24.684;2022-10-22T08:07:41;99388.53;;;14.88;59.88
22753;BME280;11543;43.144;24.684;2022-10-22T08:10:08;99397.66;;;15.03;59.03
22753;BME280;11543;43.144;24.684;2022-10-22T08:12:34;99401.69;;;15.15;58.12
22753;BME280;11543;43.144;24.684;2022-10-22T08:15:00;99396.09;;;15.25;57.83
22753;BME280;11543;43.144;24.684;2022-10-22T08:17:26;99403.34;;;15.33;57.74
22753;BME280;11543;43.144;24.684;2022-10-22T08:19:52;99386.09;;;15.42;56.87
22753;BME280;11543;43.144;24.684;2022-10-22T08:22:17;99390.81;;;15.48;56.89
22753;BME280;11543;43.144;24.684;2022-10-22T08:24:42;99386.75;;;15.52;56.88
22753;BME280;11543;43.144;24.684;2022-10-22T08:27:08;99383.69;;;15.55;56.86
22753;BME280;11543;43.144;24.684;2022-10-22T08:29:33;99389.31;;;15.62;57.16
22753;BME280;11543;43.144;24.684;2022-10-22T08:31:59;99383.88;;;15.70;56.94
22753;BME280;11543;43.144;24.684;2022-10-22T08:34:27;99376.72;;;15.85;56.44
22753;BME280;11543;43.144;24.684;2022-10-22T08:36:55;99364.53;;;15.89;55.96
22753;BME280;11543;43.144;24.684;2022-10-22T08:39:20;99363.28;;;16.00;55.92
22753;BME280;11543;43.144;24.684;2022-10-22T08:42:11;99363.53;;;16.13;55.71
22753;BME280;11543;43.144;24.684;2022-10-22T08:45:13;99357.78;;;16.16;55.80
22753;BME280;11543;43.144;24.684;2022-10-22T08:47:55;99347.44;;;16.19;55.63
22753;BME280;11543;43.144;24.684;2022-10-22T08:50:33;99341.97;;;16.28;55.66
22753;BME280;11543;43.144;24.684;2022-10-22T08:53:03;99340.34;;;16.41;55.55
22753;BME280;11543;43.144;24.684;2022-10-22T08:55:32;99333.16;;;16.56;55.10
22753;BME280;11543;43.144;24.684;2022-10-22T08:58:04;99329.00;;;16.69;54.84
22753;BME280;11543;43.144;24.684;2022-10-22T09:06:50;99327.41;;;17.12;52.65
22753;BME280;11543;43.144;24.684;2022-10-22T09:09:17;99335.19;;;17.30;51.88
22753;BME280;11543;43.144;24.684;2022-10-22T09:11:51;99327.00;;;17.38;52.10
22753;BME280;11543;43.144;24.684;2022-10-22T09:14:24;99331.47;;;17.60;51.58
22753;BME280;11543;43.144;24.684;2022-10-22T09:19:33;99322.81;;;18.01;50.10
22753;BME280;11543;43.144;24.684;2022-10-22T09:22:21;99318.50;;;18.21;49.75
22753;BME280;11543;43.144;24.684;2022-10-22T09:24:56;99314.03;;;18.35;49.14
22753;BME280;11543;43.144;24.684;2022-10-22T09:27:28;99319.59;;;18.48;49.10
22753;BME280;11543;43.144;24.684;2022-10-22T09:29:54;99322.63;;;18.60;49.19
22753;BME280;11543;43.144;24.684;2022-10-22T09:32:20;99316.97;;;18.76;48.28
22753;BME280;11543;43.144;24.684;2022-10-22T09:34:47;99321.84;;;18.87;48.21
22753;BME280;11543;43.144;24.684;2022-10-22T09:37:17;99318.44;;;19.06;47.16
22753;BME280;11543;43.144;24.684;2022-10-22T09:39:46;99312.75;;;19.23;46.05
22753;BME280;11543;43.144;24.684;2022-10-22T09:42:16;99314.28;;;19.38;45.70
22753;BME280;11543;43.144;24.684;2022-10-22T09:44:43;99315.63;;;19.49;45.34
22753;BME280;11543;43.144;24.684;2022-10-22T09:47:39;99310.44;;;19.54;45.80
22753;BME280;11543;43.144;24.684;2022-10-22T09:50:27;99304.19;;;19.60;45.02
22753;BME280;11543;43.144;24.684;2022-10-22T09:53:00;99305.75;;;19.83;43.19
22753;BME280;11543;43.144;24.684;2022-10-22T09:55:31;99303.47;;;19.86;42.57
22753;BME280;11543;43.144;24.684;2022-10-22T09:57:59;99301.44;;;20.01;43.60
22753;BME280;11543;43.144;24.684;2022-10-22T10:00:25;99299.78;;;20.07;43.87
22753;BME280;11543;43.144;24.684;2022-10-22T10:02:56;99300.66;;;20.14;43.91
22753;BME280;11543;43.144;24.684;2022-10-22T10:05:28;99293.97;;;20.23;43.82
22753;BME280;11543;43.144;24.684;2022-10-22T10:07:54;99297.34;;;20.39;43.36
22753;BME280;11543;43.144;24.684;2022-10-22T10:13:08;99290.69;;;20.67;42.90
22753;BME280;11543;43.144;24.684;2022-10-22T10:15:53;99291.13;;;20.84;42.34
22753;BME280;11543;43.144;24.684;2022-10-22T10:18:33;99291.56;;;20.94;41.79
22753;BME280;11543;43.144;24.684;2022-10-22T10:21:09;99286.94;;;21.02;41.51
22753;BME280;11543;43.144;24.684;2022-10-22T10:23:58;99293.63;;;21.12;40.80
22753;BME280;11543;43.144;24.684;2022-10-22T10:26:44;99284.00;;;21.23;39.58
22753;BME280;11543;43.144;24.684;2022-10-22T10:40:56;99258.09;;;21.45;40.43
22753;BME280;11543;43.144;24.684;2022-10-22T10:46:32;99262.88;;;21.56;40.52
22753;BME280;11543;43.144;24.684;2022-10-22T10:49:09;99262.47;;;21.59;40.72
22753;BME280;11543;43.144;24.684;2022-10-22T10:57:02;99255.66;;;21.82;39.70
22753;BME280;11543;43.144;24.684;2022-10-22T11:08:04;99234.19;;;21.92;39.07
22753;BME280;11543;43.144;24.684;2022-10-22T11:10:42;99228.72;;;21.92;39.75
22753;BME280;11543;43.144;24.684;2022-10-22T11:16:36;99227.22;;;22.03;39.23
22753;BME280;11543;43.144;24.684;2022-10-22T11:22:28;99227.09;;;22.22;38.50
22753;BME280;11543;43.144;24.684;2022-10-22T11:25:02;99208.72;;;22.30;38.63
22753;BME280;11543;43.144;24.684;2022-10-22T11:27:36;99206.56;;;22.38;38.73
22753;BME280;11543;43.144;24.684;2022-10-22T11:30:24;99201.03;;;22.45;38.94
22753;BME280;11543;43.144;24.684;2022-10-22T11:32:56;99189.66;;;22.48;38.39
22753;BME280;11543;43.144;24.684;2022-10-22T11:35:33;99195.28;;;22.53;38.43
22753;BME280;11543;43.144;24.684;2022-10-22T11:38:00;99199.91;;;22.59;38.07
22753;BME280;11543;43.144;24.684;2022-10-22T11:40:37;99197.31;;;22.64;37.63
22753;BME280;11543;43.144;24.684;2022-10-22T11:43:11;99203.84;;;22.63;38.19
22753;BME280;11543;43.144;24.684;2022-10-22T11:45:57;99194.19;;;22.61;38.20
22753;BME280;11543;43.144;24.684;2022-10-22T11:48:28;99190.63;;;22.60;37.97
22753;BME280;11543;43.144;24.684;2022-10-22T11:51:00;99191.69;;;22.59;38.20
22753;BME280;11543;43.144;24.684;2022-10-22T11:53:33;99187.91;;;22.60;37.57
22753;BME280;11543;43.144;24.684;2022-10-22T11:56:03;99188.34;;;22.57;37.91
22753;BME280;11543;43.144;24.684;2022-10-22T11:58:46;99176.16;;;22.53;38.03
22753;BME280;11543;43.144;24.684;2022-10-22T12:03:50;99170.69;;;22.53;38.21
22753;BME280;11543;43.144;24.684;2022-10-22T12:06:20;99169.47;;;22.49;38.33
22753;BME280;11543;43.144;24.684;2022-10-22T12:11:34;99176.66;;;22.43;38.52
22753;BME280;11543;43.144;24.684;2022-10-22T12:14:22;99166.56;;;22.44;38.24
22753;BME280;11543;43.144;24.684;2022-10-22T12:16:58;99163.66;;;22.39;38.83
22753;BME280;11543;43.144;24.684;2022-10-22T12:22:14;99160.94;;;22.39;38.90
22753;BME280;11543;43.144;24.684;2022-10-22T12:24:45;99159.41;;;22.43;39.08
22753;BME280;11543;43.144;24.684;2022-10-22T12:27:21;99159.31;;;22.56;38.66
22753;BME280;11543;43.144;24.684;2022-10-22T12:29:48;99157.53;;;22.68;37.91
22753;BME280;11543;43.144;24.684;2022-10-22T12:32:15;99159.66;;;22.66;38.08
22753;BME280;11543;43.144;24.684;2022-10-22T12:34:45;99157.47;;;22.75;38.49
22753;BME280;11543;43.144;24.684;2022-10-22T12:37:12;99154.59;;;22.88;37.86
22753;BME280;11543;43.144;24.684;2022-10-22T12:39:38;99151.81;;;22.95;37.85
22753;BME280;11543;43.144;24.684;2022-10-22T12:42:04;99149.00;;;23.01;37.63
22753;BME280;11543;43.144;24.684;2022-10-22T12:44:31;99139.03;;;23.07;37.28
22753;BME280;11543;43.144;24.684;2022-10-22T12:46:59;99139.50;;;23.04;37.42
22753;BME280;11543;43.144;24.684;2022-10-22T12:49:33;99134.16;;;23.09;36.96
22753;BME280;11543;43.144;24.684;2022-10-22T12:52:02;99136.91;;;23.09;37.21
22753;BME280;11543;43.144;24.684;2022-10-22T12:54:31;99136.06;;;23.08;37.36
22753;BME280;11543;43.144;24.684;2022-10-22T12:56:57;99130.13;;;23.11;37.21
22753;BME280;11543;43.144;24.684;2022-10-22T13:01:55;99113.63;;;23.18;37.02
22753;BME280;11543;43.144;24.684;2022-10-22T13:04:32;99114.22;;;23.20;36.94
22753;BME280;11543;43.144;24.684;2022-10-22T13:09:36;99108.91;;;23.25;36.55
22753;BME280;11543;43.144;24.684;2022-10-22T13:12:04;99100.53;;;23.20;37.49
22753;BME280;11543;43.144;24.684;2022-10-22T13:14:35;99098.31;;;23.29;37.06
22753;BME280;11543;43.144;24.684;2022-10-22T13:17:03;99093.22;;;23.32;37.28
22753;BME280;11543;43.144;24.684;2022-10-22T13:19:38;99087.66;;;23.39;37.35
22753;BME280;11543;43.144;24.684;2022-10-22T13:22:04;99093.53;;;23.42;37.06
22753;BME280;11543;43.144;24.684;2022-10-22T13:24:30;99093.53;;;23.42;36.35
22753;BME280;11543;43.144;24.684;2022-10-22T13:26:56;99092.28;;;23.38;36.76
22753;BME280;11543;43.144;24.684;2022-10-22T13:29:22;99090.84;;;23.36;36.45
22753;BME280;11543;43.144;24.684;2022-10-22T13:31:50;99089.03;;;23.30;36.54
22753;BME280;11543;43.144;24.684;2022-10-22T13:34:19;99089.75;;;23.25;36.64
22753;BME280;11543;43.144;24.684;2022-10-22T13:36:46;99090.06;;;23.17;36.85
22753;BME280;11543;43.144;24.684;2022-10-22T13:39:23;99088.25;;;23.11;36.64
22753;BME280;11543;43.144;24.684;2022-10-22T13:41:49;99088.69;;;23.08;36.75
22753;BME280;11543;43.144;24.684;2022-10-22T13:44:16;99095.31;;;23.00;36.75
22753;BME280;11543;43.144;24.684;2022-10-22T13:46:42;99091.59;;;22.95;36.89
22753;BME280;11543;43.144;24.684;2022-10-22T13:49:18;99091.69;;;22.88;37.02
22753;BME280;11543;43.144;24.684;2022-10-22T13:51:45;99091.75;;;22.81;36.89
22753;BME280;11543;43.144;24.684;2022-10-22T13:54:16;99087.63;;;22.72;37.14
22753;BME280;11543;43.144;24.684;2022-10-22T13:56:43;99091.50;;;22.65;37.05
22753;BME280;11543;43.144;24.684;2022-10-22T13:59:09;99086.09;;;22.58;37.11
22753;BME280;11543;43.144;24.684;2022-10-22T14:01:35;99083.63;;;22.50;37.38
22753;BME280;11543;43.144;24.684;2022-10-22T14:04:03;99079.06;;;22.44;37.46
22753;BME280;11543;43.144;24.684;2022-10-22T14:06:30;99089.16;;;22.43;37.48
22753;BME280;11543;43.144;24.684;2022-10-22T14:09:07;99091.28;;;22.41;37.35
22753;BME280;11543;43.144;24.684;2022-10-22T14:11:36;99091.97;;;22.37;37.32
22753;BME280;11543;43.144;24.684;2022-10-22T14:14:02;99089.69;;;22.34;37.02
22753;BME280;11543;43.144;24.684;2022-10-22T14:16:30;99079.66;;;22.28;37.15
22753;BME280;11543;43.144;24.684;2022-10-22T14:18:58;99078.44;;;22.23;37.00
22753;BME280;11543;43.144;24.684;2022-10-22T14:21:34;99075.53;;;22.18;37.15
22753;BME280;11543;43.144;24.684;2022-10-22T14:24:00;99081.91;;;22.12;37.06
22753;BME280;11543;43.144;24.684;2022-10-22T14:26:28;99079.00;;;22.07;37.42
22753;BME280;11543;43.144;24.684;2022-10-22T14:28:56;99080.69;;;22.02;37.59
22753;BME280;11543;43.144;24.684;2022-10-22T14:31:22;99084.53;;;21.94;37.66